Time;durP1;ratioP1;P1;durP2;ratioP2;P2;SDS_P1;SDS_P2;PMS_P1;PMS_P2;Temp;Humidity;BMP_temperature;BMP_pressure;BME280_temperature;BME280_humidity;BME280_pressure;Samples;Min_cycle;Max_cycle;Signal;HPM_P1;HPM_P2
2021/10/22 00:00:55;;;;;;;;;;;9.60;75.80;;;;;;5090895;28;20375;-79
2021/10/22 00:03:22;;;;;;;;;;;9.50;75.80;;;;;;5092370;28;19904;-79
2021/10/22 00:05:49;;;;;;;;;;;9.40;75.90;;;;;;5090868;28;19904;-80
2021/10/22 00:08:14;;;;;;;;;;;9.40;76.10;;;;;;5090793;28;20510;-79
2021/10/22 00:10:40;;;;;;;;;;;9.40;76.30;;;;;;5092019;28;19947;-77
2021/10/22 00:13:05;;;;;;;;;;;9.40;76.30;;;;;;5073679;28;19908;-79
2021/10/22 00:15:31;;;;;;;;;;;9.40;76.30;;;;;;5090556;28;19915;-79
2021/10/22 00:17:59;;;;;;;;;;;9.50;76.40;;;;;;5090510;28;19912;-78
2021/10/22 00:20:25;;;;;;;;;;;9.50;76.40;;;;;;5074026;28;19963;-78
2021/10/22 00:22:51;;;;;;;;;;;9.50;76.30;;;;;;5073687;28;20342;-79
2021/10/22 00:25:19;;;;;;;;;;;9.50;76.30;;;;;;5091837;28;19942;-80
2021/10/22 00:27:45;;;;;;;;;;;9.50;76.40;;;;;;5090428;28;20235;-79
2021/10/22 00:30:10;;;;;;;;;;;9.60;76.40;;;;;;5091781;28;20274;-77
2021/10/22 00:32:36;;;;;;;;;;;9.60;76.40;;;;;;5073614;28;20403;-79
2021/10/22 00:35:02;;;;;;;;;;;9.60;76.30;;;;;;5091662;28;19992;-77
2021/10/22 00:37:27;;;;;;;;;;;9.60;76.30;;;;;;5091537;28;19947;-78
2021/10/22 00:39:53;;;;;;;;;;;9.60;76.30;;;;;;5091628;28;19934;-79
2021/10/22 00:42:19;;;;;;;;;;;9.50;76.30;;;;;;5090385;28;19912;-79
2021/10/22 00:44:47;;;;;;;;;;;9.50;76.40;;;;;;5091545;28;19911;-79
2021/10/22 00:47:12;;;;;;;;;;;9.50;76.50;;;;;;5091448;28;19911;-80
2021/10/22 00:49:38;;;;;;;;;;;9.50;76.60;;;;;;5073392;28;19941;-78
2021/10/22 00:52:04;;;;;;;;;;;9.50;76.70;;;;;;5091410;28;19915;-79
2021/10/22 00:54:30;;;;;;;;;;;9.60;76.80;;;;;;5089978;28;19908;-78
2021/10/22 00:56:56;;;;;;;;;;;9.60;76.80;;;;;;5090003;28;19933;-78
2021/10/22 00:59:22;;;;;;;;;;;9.60;76.80;;;;;;5090052;28;19956;-78
2021/10/22 01:01:47;;;;;;;;;;;9.70;76.80;;;;;;5091388;28;20366;-78
2021/10/22 01:04:13;;;;;;;;;;;9.70;76.90;;;;;;5089856;28;19908;-79
2021/10/22 01:06:39;;;;;;;;;;;9.80;76.90;;;;;;5072937;28;19954;-80
2021/10/22 01:09:11;;;;;;;;;;;9.80;76.90;;;;;;5072959;28;19973;-80
2021/10/22 01:11:37;;;;;;;;;;;9.90;77.00;;;;;;5090842;28;19911;-80
2021/10/22 01:14:03;;;;;;;;;;;9.90;76.80;;;;;;5090899;28;19911;-79
2021/10/22 01:16:29;;;;;;;;;;;10.00;76.90;;;;;;5090634;28;19916;-80
2021/10/22 01:18:55;;;;;;;;;;;10.00;77.00;;;;;;5089493;28;19960;-79
2021/10/22 01:21:21;;;;;;;;;;;10.00;77.10;;;;;;5089417;28;19953;-79
2021/10/22 01:23:47;;;;;;;;;;;10.00;77.20;;;;;;5089338;28;19908;-79
2021/10/22 01:26:13;;;;;;;;;;;10.10;77.40;;;;;;5089260;28;19918;-79
2021/10/22 01:28:38;;;;;;;;;;;10.10;77.50;;;;;;5090569;28;19912;-79
2021/10/22 01:31:04;;;;;;;;;;;10.10;77.60;;;;;;5072401;28;20269;-80
2021/10/22 01:33:30;;;;;;;;;;;10.20;77.80;;;;;;5072377;28;20357;-79
2021/10/22 01:35:56;;;;;;;;;;;10.20;77.90;;;;;;5089439;28;19915;-80
2021/10/22 01:38:23;;;;;;;;;;;10.20;78.00;;;;;;5090268;28;20175;-78
2021/10/22 01:40:53;;;;;;;;;;;10.30;78.20;;;;;;5090242;28;19998;-80
2021/10/22 01:43:20;;;;;;;;;;;10.30;78.40;;;;;;5089410;28;20270;-78
2021/10/22 01:45:46;;;;;;;;;;;10.30;78.60;;;;;;5089304;28;19957;-79
2021/10/22 01:48:12;;;;;;;;;;;10.30;78.80;;;;;;5072027;28;19993;-79
2021/10/22 01:50:38;;;;;;;;;;;10.30;78.80;;;;;;5072150;28;19915;-79
2021/10/22 01:53:04;;;;;;;;;;;10.30;79.00;;;;;;5088885;28;20298;-79
2021/10/22 01:55:29;;;;;;;;;;;10.30;79.20;;;;;;5088707;28;19969;-79
2021/10/22 01:57:55;;;;;;;;;;;10.30;79.40;;;;;;5088746;28;19915;-79
2021/10/22 02:00:20;;;;;;;;;;;10.30;79.50;;;;;;5088532;28;19928;-80
2021/10/22 02:02:46;;;;;;;;;;;10.30;79.80;;;;;;5088739;28;19939;-79
2021/10/22 02:05:11;;;;;;;;;;;10.40;79.90;;;;;;5071695;28;19908;-80
2021/10/22 02:07:37;;;;;;;;;;;10.40;80.20;;;;;;5087746;28;20440;-79
2021/10/22 02:10:03;;;;;;;;;;;10.40;80.40;;;;;;5071602;28;19926;-82
2021/10/22 02:12:29;;;;;;;;;;;10.40;80.60;;;;;;5089721;28;20010;-79
2021/10/22 02:14:54;;;;;;;;;;;10.40;80.80;;;;;;5088534;28;19912;-78
2021/10/22 02:17:20;;;;;;;;;;;10.40;80.90;;;;;;5088548;28;19908;-79
2021/10/22 02:19:46;;;;;;;;;;;10.40;81.00;;;;;;5088333;28;19916;-80
2021/10/22 02:22:11;;;;;;;;;;;10.40;81.20;;;;;;5089756;28;19904;-78
2021/10/22 02:24:38;;;;;;;;;;;10.40;81.40;;;;;;5088307;28;19908;-80
2021/10/22 02:27:03;;;;;;;;;;;10.50;81.60;;;;;;5088449;28;20236;-79
2021/10/22 02:29:29;;;;;;;;;;;10.50;81.70;;;;;;5088033;28;19919;-80
2021/10/22 02:31:55;;;;;;;;;;;10.50;81.90;;;;;;5088297;28;19954;-78
2021/10/22 02:34:21;;;;;;;;;;;10.50;82.10;;;;;;5088282;28;19954;-79
2021/10/22 02:36:46;;;;;;;;;;;10.50;82.40;;;;;;5088035;28;19947;-79
2021/10/22 02:39:12;;;;;;;;;;;10.50;82.50;;;;;;5087994;28;20420;-79
2021/10/22 02:41:38;;;;;;;;;;;10.50;82.70;;;;;;5089294;28;19915;-79
2021/10/22 02:44:04;;;;;;;;;;;10.50;82.80;;;;;;5071071;28;19908;-79
2021/10/22 02:46:33;;;;;;;;;;;10.50;83.00;;;;;;5089141;28;19964;-79
2021/10/22 02:48:58;;;;;;;;;;;10.50;83.20;;;;;;5089103;28;19923;-79
2021/10/22 02:51:24;;;;;;;;;;;10.50;83.90;;;;;;5088957;28;19904;-79
2021/10/22 02:53:49;;;;;;;;;;;10.50;83.70;;;;;;5088910;28;19904;-79
2021/10/22 02:56:15;;;;;;;;;;;10.50;83.90;;;;;;5089093;28;19995;-80
2021/10/22 02:58:40;;;;;;;;;;;10.50;84.10;;;;;;5070561;28;19998;-81
2021/10/22 03:01:06;;;;;;;;;;;10.50;84.20;;;;;;5087362;28;19970;-80
2021/10/22 03:03:32;;;;;;;;;;;10.50;84.30;;;;;;5087382;28;20342;-79
2021/10/22 03:05:57;;;;;;;;;;;10.50;84.30;;;;;;5088825;28;19951;-81
2021/10/22 03:08:23;;;;;;;;;;;10.50;84.40;;;;;;5087324;28;19919;-80
2021/10/22 03:10:48;;;;;;;;;;;10.50;85.00;;;;;;5087613;28;19908;-81
2021/10/22 03:13:14;;;;;;;;;;;10.50;84.60;;;;;;5088796;28;19919;-80
2021/10/22 03:15:40;;;;;;;;;;;10.60;84.80;;;;;;5087514;28;19951;-81
2021/10/22 03:18:05;;;;;;;;;;;10.50;84.90;;;;;;5087069;28;19908;-79
2021/10/22 03:20:31;;;;;;;;;;;10.50;85.10;;;;;;5087379;28;20265;-80
2021/10/22 03:22:56;;;;;;;;;;;10.50;85.30;;;;;;5087170;28;19943;-80
2021/10/22 03:25:22;;;;;;;;;;;10.50;85.60;;;;;;5088442;28;20018;-79
2021/10/22 03:27:48;;;;;;;;;;;10.50;85.70;;;;;;5088320;28;19946;-79
2021/10/22 03:30:14;;;;;;;;;;;10.60;85.90;;;;;;5070465;28;19912;-78
2021/10/22 03:32:40;;;;;;;;;;;10.50;86.00;;;;;;5088422;28;19958;-79
2021/10/22 03:35:05;;;;;;;;;;;10.60;86.20;;;;;;5070176;28;19908;-80
2021/10/22 03:37:31;;;;;;;;;;;10.60;86.30;;;;;;5088450;28;19913;-79
2021/10/22 03:39:57;;;;;;;;;;;10.60;86.40;;;;;;5087090;28;19911;-80
2021/10/22 03:42:22;;;;;;;;;;;10.60;86.50;;;;;;5087135;28;19918;-79
2021/10/22 03:44:48;;;;;;;;;;;10.60;86.60;;;;;;5070230;28;19912;-79
2021/10/22 03:47:13;;;;;;;;;;;10.60;86.70;;;;;;5087205;28;19961;-78
2021/10/22 03:49:39;;;;;;;;;;;10.70;86.80;;;;;;5088309;28;19912;-80
2021/10/22 03:52:05;;;;;;;;;;;10.70;86.90;;;;;;5087002;28;19922;-80
2021/10/22 03:54:30;;;;;;;;;;;10.70;86.90;;;;;;5086912;28;19908;-78
2021/10/22 03:56:56;;;;;;;;;;;10.70;87.10;;;;;;5088210;28;19912;-80
2021/10/22 03:59:22;;;;;;;;;;;10.70;87.10;;;;;;5088060;28;20358;-80
2021/10/22 04:01:50;;;;;;;;;;;10.80;87.20;;;;;;5069778;28;19919;-79
2021/10/22 04:04:17;;;;;;;;;;;10.70;87.20;;;;;;5088638;28;19970;-80
2021/10/22 04:06:42;;;;;;;;;;;10.70;87.40;;;;;;5086815;28;19912;-79
2021/10/22 04:09:15;;;;;;;;;;;10.70;87.50;;;;;;5086806;28;19907;-78
2021/10/22 04:11:40;;;;;;;;;;;10.70;87.60;;;;;;5088017;28;19932;-78
2021/10/22 04:14:06;;;;;;;;;;;10.60;87.70;;;;;;5086932;28;20114;-80
2021/10/22 04:16:31;;;;;;;;;;;10.50;88.00;;;;;;5070042;28;19927;-81
2021/10/22 04:18:57;;;;;;;;;;;10.50;88.40;;;;;;5088232;28;19913;-80
2021/10/22 04:21:23;;;;;;;;;;;10.50;88.60;;;;;;5087849;28;20366;-80
2021/10/22 04:23:48;;;;;;;;;;;10.50;88.80;;;;;;5086719;28;19958;-80
2021/10/22 04:26:14;;;;;;;;;;;10.50;89.00;;;;;;5069898;28;20166;-80
2021/10/22 04:28:39;;;;;;;;;;;10.50;89.10;;;;;;5069676;28;20351;-79
2021/10/22 04:31:05;;;;;;;;;;;10.50;89.30;;;;;;5072078;28;20343;-79
2021/10/22 04:33:31;;;;;;;;;;;10.60;89.50;;;;;;5091571;28;19934;-80
2021/10/22 04:35:57;;;;;;;;;;;10.60;89.70;;;;;;5091547;28;19920;-79
2021/10/22 04:40:52;;;;;;;;;;;10.70;90.00;;;;;;5091587;28;20024;-78
2021/10/22 04:43:17;;;;;;;;;;;10.60;89.90;;;;;;5073824;28;20382;-78
2021/10/22 04:45:44;;;;;;;;;;;10.60;90.00;;;;;;5090239;28;19908;-78
2021/10/22 04:48:11;;;;;;;;;;;10.70;90.10;;;;;;5090433;28;19908;-78
2021/10/22 04:50:41;;;;;;;;;;;10.70;90.10;;;;;;5089958;28;19908;-80
2021/10/22 04:53:07;;;;;;;;;;;10.70;90.10;;;;;;5091375;28;19915;-80
2021/10/22 04:55:33;;;;;;;;;;;10.70;90.20;;;;;;5090085;28;19950;-80
2021/10/22 04:57:59;;;;;;;;;;;10.70;90.20;;;;;;5090012;28;20016;-80
2021/10/22 05:00:24;;;;;;;;;;;10.70;90.30;;;;;;5072798;28;19920;-80
2021/10/22 05:02:50;;;;;;;;;;;10.70;90.30;;;;;;5091118;28;19949;-79
2021/10/22 05:05:15;;;;;;;;;;;10.70;90.40;;;;;;5091129;28;19910;-80
2021/10/22 05:07:41;;;;;;;;;;;10.70;90.50;;;;;;5089871;28;20328;-80
2021/10/22 05:10:07;;;;;;;;;;;10.70;90.50;;;;;;5089679;28;19916;-80
2021/10/22 05:12:33;;;;;;;;;;;10.60;90.60;;;;;;5090828;28;20281;-80
2021/10/22 05:14:59;;;;;;;;;;;10.60;90.70;;;;;;5089459;28;19908;-79
2021/10/22 05:17:28;;;;;;;;;;;10.50;90.70;;;;;;5089499;28;19950;-80
2021/10/22 05:19:54;;;;;;;;;;;10.50;90.90;;;;;;5090742;28;20002;-80
2021/10/22 05:22:20;;;;;;;;;;;10.50;91.10;;;;;;5089311;28;19953;-78
2021/10/22 05:24:46;;;;;;;;;;;10.50;91.40;;;;;;5090856;28;19927;-81
2021/10/22 05:27:12;;;;;;;;;;;10.50;91.20;;;;;;5072170;28;19908;-79
2021/10/22 05:29:38;;;;;;;;;;;10.40;91.20;;;;;;5090417;28;19921;-79
2021/10/22 05:32:04;;;;;;;;;;;10.40;91.30;;;;;;5090576;28;19904;-75
2021/10/22 05:34:29;;;;;;;;;;;10.30;91.40;;;;;;5090690;28;19915;-80
2021/10/22 05:36:55;;;;;;;;;;;10.30;91.40;;;;;;5072215;28;19908;-80
2021/10/22 05:39:21;;;;;;;;;;;10.30;91.50;;;;;;5072299;28;19915;-79
2021/10/22 05:41:50;;;;;;;;;;;10.30;91.60;;;;;;5088993;28;19914;-80
2021/10/22 05:44:19;;;;;;;;;;;10.30;91.70;;;;;;5089019;28;20190;-79
2021/10/22 05:46:45;;;;;;;;;;;10.30;91.70;;;;;;5088754;28;20431;-78
2021/10/22 05:49:11;;;;;;;;;;;10.40;91.80;;;;;;5088745;28;19916;-78
2021/10/22 05:51:37;;;;;;;;;;;10.40;91.90;;;;;;5090042;28;19911;-80
2021/10/22 05:54:03;;;;;;;;;;;10.40;91.90;;;;;;5088801;28;19914;-80
2021/10/22 05:56:29;;;;;;;;;;;10.40;91.80;;;;;;5088779;28;19994;-80
2021/10/22 05:58:55;;;;;;;;;;;10.50;91.90;;;;;;5088638;28;19915;-79
2021/10/22 06:01:21;;;;;;;;;;;10.50;91.80;;;;;;5088374;28;19959;-79
2021/10/22 06:03:47;;;;;;;;;;;10.60;91.80;;;;;;5088731;28;19914;-80
2021/10/22 06:06:12;;;;;;;;;;;10.60;91.80;;;;;;5088581;28;19908;-80
2021/10/22 06:08:38;;;;;;;;;;;10.60;91.70;;;;;;5089605;28;20326;-80
2021/10/22 06:11:10;;;;;;;;;;;10.70;91.80;;;;;;5088267;28;19915;-79
2021/10/22 06:13:35;;;;;;;;;;;10.70;91.70;;;;;;5072233;28;19915;-78
2021/10/22 06:16:01;;;;;;;;;;;10.70;91.70;;;;;;5087863;28;19904;-77
2021/10/22 06:18:26;;;;;;;;;;;10.80;91.70;;;;;;5089554;28;20354;-79
2021/10/22 06:20:56;;;;;;;;;;;10.70;91.90;;;;;;5088159;28;19908;-77
2021/10/22 06:26:06;;;;;;;;;;;10.80;91.70;;;;;;5089425;28;20319;-78
2021/10/22 06:28:31;;;;;;;;;;;10.80;91.70;;;;;;5088064;28;20007;-79
2021/10/22 06:30:58;;;;;;;;;;;10.80;91.70;;;;;;5089456;28;19911;-79
2021/10/22 06:33:23;;;;;;;;;;;10.80;91.70;;;;;;5089519;28;19908;-79
2021/10/22 06:35:50;;;;;;;;;;;10.70;91.70;;;;;;5088069;28;19911;-79
2021/10/22 06:38:15;;;;;;;;;;;10.70;91.80;;;;;;5071179;28;20244;-78
2021/10/22 06:40:41;;;;;;;;;;;10.70;91.90;;;;;;5088296;28;19957;-79
2021/10/22 06:43:07;;;;;;;;;;;10.70;91.90;;;;;;5089445;28;20635;-78
2021/10/22 06:45:33;;;;;;;;;;;10.70;91.90;;;;;;5089703;28;19904;-78
2021/10/22 06:47:58;;;;;;;;;;;10.70;92.00;;;;;;5087676;28;19908;-77
2021/10/22 06:50:24;;;;;;;;;;;10.70;92.00;;;;;;5087676;28;19930;-74
2021/10/22 06:52:49;;;;;;;;;;;10.70;92.00;;;;;;5087173;28;19926;-77
2021/10/22 06:55:15;;;;;;;;;;;10.70;92.00;;;;;;5087731;28;19904;-78
2021/10/22 06:57:42;;;;;;;;;;;10.70;92.00;;;;;;5089475;28;20286;-78
2021/10/22 07:00:08;;;;;;;;;;;10.70;92.10;;;;;;5086794;28;19916;-78
2021/10/22 07:02:45;;;;;;;;;;;10.70;92.10;;;;;;5088848;28;20017;-80
2021/10/22 07:05:22;;;;;;;;;;;10.60;92.10;;;;;;5087104;28;19954;-78
2021/10/22 07:07:48;;;;;;;;;;;10.70;92.30;;;;;;5087053;28;20372;-79
2021/10/22 07:10:13;;;;;;;;;;;10.60;92.30;;;;;;5069985;28;20011;-77
2021/10/22 07:12:39;;;;;;;;;;;10.60;92.40;;;;;;5088287;28;19915;-79
2021/10/22 07:15:08;;;;;;;;;;;10.70;92.40;;;;;;5089096;28;19904;-79
2021/10/22 07:17:33;;;;;;;;;;;10.70;92.40;;;;;;5087538;28;19915;-78
2021/10/22 07:19:59;;;;;;;;;;;10.70;92.40;;;;;;5086943;28;19908;-79
2021/10/22 07:22:31;;;;;;;;;;;10.70;92.40;;;;;;5087413;28;19913;-79
2021/10/22 07:24:56;;;;;;;;;;;10.70;92.40;;;;;;5089079;28;19912;-80
2021/10/22 07:27:25;;;;;;;;;;;10.60;92.40;;;;;;5086972;28;19915;-78
2021/10/22 07:29:51;;;;;;;;;;;10.60;92.50;;;;;;5088684;28;20415;-80
2021/10/22 07:32:17;;;;;;;;;;;10.60;92.50;;;;;;5087058;28;19904;-79
2021/10/22 07:34:42;;;;;;;;;;;10.50;92.60;;;;;;5091645;28;19911;-80
2021/10/22 07:37:08;;;;;;;;;;;10.60;92.70;;;;;;5090073;28;19907;-78
2021/10/22 07:39:34;;;;;;;;;;;10.70;92.80;;;;;;5070556;28;20247;-80
2021/10/22 07:42:00;;;;;;;;;;;10.80;92.80;;;;;;5089590;28;20344;-80
2021/10/22 07:44:26;;;;;;;;;;;10.90;92.60;;;;;;5086768;28;20316;-80
2021/10/22 07:46:52;;;;;;;;;;;10.90;92.60;;;;;;5087183;28;19912;-80
2021/10/22 07:49:17;;;;;;;;;;;10.90;92.60;;;;;;5070300;28;19915;-80
2021/10/22 07:51:43;;;;;;;;;;;10.90;92.60;;;;;;5086693;28;20364;-79
2021/10/22 07:54:09;;;;;;;;;;;11.00;92.60;;;;;;5086460;28;19928;-79
2021/10/22 07:56:35;;;;;;;;;;;11.00;92.50;;;;;;5087609;28;19954;-79
2021/10/22 07:59:03;;;;;;;;;;;11.10;92.60;;;;;;5087962;28;19904;-79
2021/10/22 08:01:29;;;;;;;;;;;11.10;92.50;;;;;;5087048;28;20015;-79
2021/10/22 08:03:54;;;;;;;;;;;11.10;92.50;;;;;;5086417;28;20002;-77
2021/10/22 08:06:20;;;;;;;;;;;11.20;92.50;;;;;;5072235;28;20017;-79
2021/10/22 08:08:46;;;;;;;;;;;11.20;92.50;;;;;;5095827;28;19912;-78
2021/10/22 08:11:18;;;;;;;;;;;11.20;92.60;;;;;;5102128;28;20364;-74
2021/10/22 08:13:43;;;;;;;;;;;11.30;92.60;;;;;;5107900;28;19911;-79
2021/10/22 08:16:09;;;;;;;;;;;11.40;92.50;;;;;;5102081;28;19908;-78
2021/10/22 08:18:37;;;;;;;;;;;11.40;92.50;;;;;;5103710;28;19908;-75
2021/10/22 08:21:17;;;;;;;;;;;11.50;92.50;;;;;;5102035;28;19930;-78
2021/10/22 08:23:43;;;;;;;;;;;11.60;92.50;;;;;;5100509;28;19904;-79
2021/10/22 08:26:09;;;;;;;;;;;11.60;92.40;;;;;;5102648;28;19918;-77
2021/10/22 08:28:34;;;;;;;;;;;11.70;92.30;;;;;;5104506;28;20350;-79
2021/10/22 08:31:00;;;;;;;;;;;11.70;92.30;;;;;;5105373;28;19957;-77
2021/10/22 08:33:26;;;;;;;;;;;11.70;92.20;;;;;;5104085;28;20272;-79
2021/10/22 08:35:53;;;;;;;;;;;11.80;92.30;;;;;;5098551;28;19909;-79
2021/10/22 08:38:24;;;;;;;;;;;11.80;92.30;;;;;;5099728;28;19911;-79
2021/10/22 08:40:52;;;;;;;;;;;11.90;92.30;;;;;;5092496;28;19908;-78
2021/10/22 08:43:17;;;;;;;;;;;11.90;92.20;;;;;;5092159;28;19943;-79
2021/10/22 08:45:43;;;;;;;;;;;12.00;92.20;;;;;;5073607;28;20325;-78
2021/10/22 08:48:11;;;;;;;;;;;12.00;92.20;;;;;;5090350;28;19904;-77
2021/10/22 08:50:37;;;;;;;;;;;12.20;92.30;;;;;;5091479;28;20335;-77
2021/10/22 08:53:02;;;;;;;;;;;12.30;92.20;;;;;;5073508;28;20007;-78
2021/10/22 08:55:28;;;;;;;;;;;12.30;92.10;;;;;;5090490;28;19915;-78
2021/10/22 08:57:54;;;;;;;;;;;12.30;91.90;;;;;;5091980;28;19908;-78
2021/10/22 09:00:20;;;;;;;;;;;12.40;92.10;;;;;;5074644;28;19927;-77
2021/10/22 09:02:48;;;;;;;;;;;12.70;92.60;;;;;;5093193;28;19912;-77
2021/10/22 09:05:18;;;;;;;;;;;13.00;92.10;;;;;;5092757;28;19908;-78
2021/10/22 09:07:45;;;;;;;;;;;13.40;92.60;;;;;;5092506;28;19973;-77
2021/10/22 09:10:10;;;;;;;;;;;14.50;93.10;;;;;;5112645;28;19911;-78
2021/10/22 09:13:01;;;;;;;;;;;15.40;91.90;;;;;;5111282;28;20243;-78
2021/10/22 09:15:27;;;;;;;;;;;15.70;91.10;;;;;;5111119;28;19904;-79
2021/10/22 09:17:55;;;;;;;;;;;15.70;90.30;;;;;;5112518;28;19990;-78
2021/10/22 09:20:21;;;;;;;;;;;15.50;90.00;;;;;;5093204;28;19998;-77
2021/10/22 09:22:49;;;;;;;;;;;15.30;89.90;;;;;;5090680;28;20004;-77
2021/10/22 09:25:16;;;;;;;;;;;15.20;90.00;;;;;;5091913;28;20320;-76
2021/10/22 09:27:51;;;;;;;;;;;15.00;90.10;;;;;;5090668;28;19904;-75
2021/10/22 09:30:22;;;;;;;;;;;15.10;90.30;;;;;;5090408;28;19953;-75
2021/10/22 09:32:49;;;;;;;;;;;15.30;90.30;;;;;;5092292;28;19954;-78
2021/10/22 09:35:17;;;;;;;;;;;15.60;89.90;;;;;;5092698;28;20255;-78
2021/10/22 09:37:43;;;;;;;;;;;15.90;89.70;;;;;;5107003;28;19908;-79
2021/10/22 09:40:09;;;;;;;;;;;16.10;89.60;;;;;;5081832;28;19911;-79
2021/10/22 09:42:36;;;;;;;;;;;16.00;88.90;;;;;;5099731;28;20354;-76
2021/10/22 09:45:02;;;;;;;;;;;15.90;88.10;;;;;;5101994;28;19946;-78
2021/10/22 09:47:28;;;;;;;;;;;15.70;88.50;;;;;;5084345;28;19937;-77
2021/10/22 09:50:04;;;;;;;;;;;15.60;88.70;;;;;;5100710;28;19935;-78
2021/10/22 09:52:30;;;;;;;;;;;15.50;88.50;;;;;;5101863;28;19956;-78
2021/10/22 09:55:05;;;;;;;;;;;15.50;88.40;;;;;;5097611;28;20234;-79
2021/10/22 09:57:31;;;;;;;;;;;15.60;88.90;;;;;;5105086;28;20269;-80
2021/10/22 10:00:03;;;;;;;;;;;15.90;89.60;;;;;;5104080;28;19975;-78
2021/10/22 10:02:28;;;;;;;;;;;16.70;90.10;;;;;;5101554;28;19916;-75
2021/10/22 10:04:54;;;;;;;;;;;17.10;89.20;;;;;;5096538;28;19914;-79
2021/10/22 10:07:19;;;;;;;;;;;17.20;86.80;;;;;;5098853;28;19916;-77
2021/10/22 10:09:46;;;;;;;;;;;16.80;85.50;;;;;;5104400;28;19957;-78
2021/10/22 10:12:13;;;;;;;;;;;16.40;86.00;;;;;;5103896;28;19908;-82
2021/10/22 10:14:39;;;;;;;;;;;16.50;87.50;;;;;;5096599;28;19924;-80
2021/10/22 10:17:05;;;;;;;;;;;17.10;88.20;;;;;;5101857;28;19998;-79
2021/10/22 10:19:36;;;;;;;;;;;17.90;88.40;;;;;;5105918;28;20330;-77
2021/10/22 10:22:03;;;;;;;;;;;18.80;88.30;;;;;;5100765;28;19995;-78
2021/10/22 10:24:34;;;;;;;;;;;19.70;86.80;;;;;;5112479;28;20003;-76
2021/10/22 10:27:07;;;;;;;;;;;20.40;86.10;;;;;;5111603;28;19904;-75
2021/10/22 10:29:44;;;;;;;;;;;21.00;85.10;;;;;;5098405;28;19908;-76
2021/10/22 10:32:12;;;;;;;;;;;21.50;84.60;;;;;;5099086;28;19911;-81
2021/10/22 10:34:51;;;;;;;;;;;21.30;81.10;;;;;;5095005;28;19915;-76
2021/10/22 10:37:26;;;;;;;;;;;20.80;81.70;;;;;;5103453;28;19908;-78
2021/10/22 10:39:54;;;;;;;;;;;21.00;82.30;;;;;;5097886;28;19904;-77
2021/10/22 10:42:39;;;;;;;;;;;21.10;81.60;;;;;;5098223;28;20342;-77
2021/10/22 10:45:24;;;;;;;;;;;20.80;79.20;;;;;;5101969;28;19907;-78
2021/10/22 10:48:08;;;;;;;;;;;20.10;78.20;;;;;;5097190;28;19910;-79
2021/10/22 10:50:38;;;;;;;;;;;19.40;79.20;;;;;;5112791;28;19908;-78
2021/10/22 10:53:04;;;;;;;;;;;18.90;79.60;;;;;;5096121;28;19911;-74
2021/10/22 10:55:30;;;;;;;;;;;18.40;79.20;;;;;;5094471;28;19950;-77
2021/10/22 10:58:00;;;;;;;;;;;17.90;79.60;;;;;;5105726;28;20260;-72
2021/10/22 11:00:44;;;;;;;;;;;17.60;80.20;;;;;;5108758;28;19918;-81
2021/10/22 11:03:16;;;;;;;;;;;17.50;81.10;;;;;;5107003;28;19961;-82
2021/10/22 11:05:45;;;;;;;;;;;17.70;81.20;;;;;;5102603;28;19911;-80
2021/10/22 11:08:13;;;;;;;;;;;17.80;80.50;;;;;;5093551;28;20497;-76
2021/10/22 11:10:56;;;;;;;;;;;17.80;80.60;;;;;;5108151;28;19904;-79
2021/10/22 11:13:23;;;;;;;;;;;17.70;80.50;;;;;;5106538;28;19903;-79
2021/10/22 11:15:49;;;;;;;;;;;17.80;80.20;;;;;;5080126;28;20005;-77
2021/10/22 11:18:15;;;;;;;;;;;18.00;80.60;;;;;;5102182;28;19907;-80
2021/10/22 11:20:41;;;;;;;;;;;18.00;79.20;;;;;;5100717;28;19908;-77
2021/10/22 11:23:11;;;;;;;;;;;18.20;80.80;;;;;;5104513;28;19908;-82
2021/10/22 11:25:36;;;;;;;;;;;18.90;80.90;;;;;;5104115;28;19904;-75
2021/10/22 11:28:09;;;;;;;;;;;19.90;80.50;;;;;;5096652;28;20360;-74
2021/10/22 11:30:35;;;;;;;;;;;20.80;79.40;;;;;;5103543;28;19997;-77
2021/10/22 11:33:02;;;;;;;;;;;21.50;77.70;;;;;;5093396;28;19904;-80
2021/10/22 11:35:29;;;;;;;;;;;21.80;76.20;;;;;;5107659;28;20010;-81
2021/10/22 11:38:02;;;;;;;;;;;22.10;76.40;;;;;;5104602;28;20004;-76
2021/10/22 11:40:27;;;;;;;;;;;22.40;75.60;;;;;;5102548;28;19908;-75
2021/10/22 11:43:05;;;;;;;;;;;22.70;74.90;;;;;;5095293;28;19914;-76
2021/10/22 11:45:31;;;;;;;;;;;22.90;74.60;;;;;;5094591;28;19949;-79
2021/10/22 11:47:56;;;;;;;;;;;22.50;74.00;;;;;;5096434;28;19995;-76
2021/10/22 11:50:24;;;;;;;;;;;21.90;72.90;;;;;;5106230;28;19990;-79
2021/10/22 11:52:50;;;;;;;;;;;21.20;72.30;;;;;;5097825;28;19956;-78
2021/10/22 11:55:22;;;;;;;;;;;20.40;71.30;;;;;;5108223;28;20429;-80
2021/10/22 11:57:49;;;;;;;;;;;19.70;71.20;;;;;;5103275;28;20254;-78
2021/10/22 12:00:14;;;;;;;;;;;19.00;71.80;;;;;;5103859;28;19912;-78
2021/10/22 12:02:40;;;;;;;;;;;18.50;72.10;;;;;;5094334;28;19912;-79
2021/10/22 12:05:07;;;;;;;;;;;18.10;73.00;;;;;;5098476;28;19904;-81
2021/10/22 12:07:54;;;;;;;;;;;18.00;73.40;;;;;;5107836;28;19907;-79
2021/10/22 12:10:20;;;;;;;;;;;18.00;73.90;;;;;;5094518;28;19910;-80
2021/10/22 12:12:48;;;;;;;;;;;18.10;74.10;;;;;;5089319;28;19931;-80
2021/10/22 12:15:24;;;;;;;;;;;18.00;73.90;;;;;;5092274;28;20361;-73
2021/10/22 12:17:53;;;;;;;;;;;18.00;73.50;;;;;;5097843;28;19949;-79
2021/10/22 12:20:19;;;;;;;;;;;17.90;73.90;;;;;;5088201;28;19908;-79
2021/10/22 12:22:50;;;;;;;;;;;18.30;74.50;;;;;;5087482;28;19911;-79
2021/10/22 12:25:17;;;;;;;;;;;18.80;73.70;;;;;;5087897;28;19908;-77
2021/10/22 12:27:49;;;;;;;;;;;19.20;73.40;;;;;;5102395;28;19925;-78
2021/10/22 12:30:15;;;;;;;;;;;19.40;72.80;;;;;;5099290;28;19912;-78
2021/10/22 12:32:44;;;;;;;;;;;19.50;72.50;;;;;;5105512;28;19911;-76
2021/10/22 12:35:15;;;;;;;;;;;19.30;72.30;;;;;;5100431;28;19908;-78
2021/10/22 12:37:42;;;;;;;;;;;19.10;72.30;;;;;;5105853;28;19908;-77
2021/10/22 12:40:28;;;;;;;;;;;18.80;71.90;;;;;;5093058;28;19957;-77
2021/10/22 12:43:05;;;;;;;;;;;18.40;72.10;;;;;;5105111;28;19904;-76
2021/10/22 12:45:31;;;;;;;;;;;18.50;73.70;;;;;;5088506;28;19910;-76
2021/10/22 12:48:03;;;;;;;;;;;18.70;73.40;;;;;;5092514;28;19911;-77
2021/10/22 12:50:33;;;;;;;;;;;18.60;73.10;;;;;;5093710;28;20377;-78
2021/10/22 12:53:04;;;;;;;;;;;18.10;72.30;;;;;;5107859;28;20389;-77
2021/10/22 12:55:30;;;;;;;;;;;17.70;72.50;;;;;;5101224;28;20330;-77
2021/10/22 12:58:18;;;;;;;;;;;17.20;72.80;;;;;;5106954;28;19968;-76
2021/10/22 13:00:44;;;;;;;;;;;17.10;73.80;;;;;;5109351;28;19912;-78
2021/10/22 13:03:16;;;;;;;;;;;17.00;74.40;;;;;;5106704;28;19908;-77
2021/10/22 13:05:43;;;;;;;;;;;17.10;74.50;;;;;;5094510;28;20003;-78
2021/10/22 13:21:19;;;;;;;;;;;15.90;74.30;;;;;;5111303;28;19964;-79
2021/10/22 13:23:44;;;;;;;;;;;15.70;74.70;;;;;;5091326;28;20285;-77
2021/10/22 13:26:10;;;;;;;;;;;15.60;75.30;;;;;;5102208;28;19907;-77
2021/10/22 13:28:36;;;;;;;;;;;15.60;76.10;;;;;;5099102;28;19970;-78
2021/10/22 13:31:10;;;;;;;;;;;15.70;76.50;;;;;;5098520;28;20335;-77
2021/10/22 13:33:35;;;;;;;;;;;15.90;76.90;;;;;;5096979;28;19911;-78
2021/10/22 13:36:03;;;;;;;;;;;15.90;76.60;;;;;;5110759;28;19991;-77
2021/10/22 13:38:29;;;;;;;;;;;15.90;76.60;;;;;;5097006;28;19908;-77
2021/10/22 13:40:59;;;;;;;;;;;15.90;76.60;;;;;;5102057;28;19927;-77
2021/10/22 13:43:29;;;;;;;;;;;16.00;76.70;;;;;;5105262;28;19910;-78
2021/10/22 13:45:55;;;;;;;;;;;16.10;76.80;;;;;;5098545;28;19952;-78
2021/10/22 13:48:21;;;;;;;;;;;16.30;76.80;;;;;;5090498;28;19915;-78
2021/10/22 13:50:47;;;;;;;;;;;16.40;76.50;;;;;;5094577;28;20016;-78
2021/10/22 13:53:17;;;;;;;;;;;16.40;76.30;;;;;;5094896;28;19916;-78
2021/10/22 13:55:43;;;;;;;;;;;16.50;76.20;;;;;;5098980;28;20349;-78
2021/10/22 13:58:08;;;;;;;;;;;16.50;76.40;;;;;;5100145;28;19993;-76
2021/10/22 14:00:34;;;;;;;;;;;16.70;76.50;;;;;;5081734;28;20361;-77
2021/10/22 14:03:01;;;;;;;;;;;16.70;76.00;;;;;;5109521;28;19927;-77
2021/10/22 14:05:26;;;;;;;;;;;16.70;75.80;;;;;;5098432;28;19947;-77
2021/10/22 14:07:52;;;;;;;;;;;16.70;75.90;;;;;;5090528;28;19936;-76
2021/10/22 14:10:23;;;;;;;;;;;16.60;75.80;;;;;;5093047;28;20010;-79
2021/10/22 14:13:00;;;;;;;;;;;16.50;75.80;;;;;;5111839;28;19908;-77
2021/10/22 14:18:36;;;;;;;;;;;16.20;75.70;;;;;;5087974;28;19926;-77
2021/10/22 14:29:08;;;;;;;;;;;16.30;76.60;;;;;;5111881;28;20048;-78
2021/10/22 14:31:37;;;;;;;;;;;16.30;76.50;;;;;;5108775;28;19908;-78
2021/10/22 14:34:03;;;;;;;;;;;16.30;76.30;;;;;;5109938;28;19912;-79
2021/10/22 14:36:29;;;;;;;;;;;16.20;76.20;;;;;;5092163;28;19908;-78
2021/10/22 14:38:55;;;;;;;;;;;16.10;76.40;;;;;;5089674;28;20278;-79
2021/10/22 14:41:22;;;;;;;;;;;16.10;76.60;;;;;;5095584;28;19934;-79
2021/10/22 14:43:50;;;;;;;;;;;16.10;76.40;;;;;;5091256;28;19908;-80
2021/10/22 14:46:27;;;;;;;;;;;15.90;76.00;;;;;;5096516;28;19991;-79
2021/10/22 14:49:05;;;;;;;;;;;15.80;76.10;;;;;;5107592;28;19914;-78